Time;durP1;ratioP1;P1;durP2;ratioP2;P2;SDS_P1;SDS_P2;PMS_P1;PMS_P2;Temp;Humidity;BMP_temperature;BMP_pressure;BME280_temperature;BME280_humidity;BME280_pressure;Samples;Min_cycle;Max_cycle;Signal;HPM_P1;HPM_P2
2024/03/05 00:02:27;0.00;0.00;0.62;0.00;0.00;0.62;10.10;7.73;;;23.70;24.70;;;;;;2261029;61;20506;-65
2024/03/05 00:05:15;0.00;0.00;0.62;0.00;0.00;0.62;9.10;6.90;;;23.70;24.70;;;;;;2264066;61;20555;-65
2024/03/05 00:07:59;0.00;0.00;0.62;0.00;0.00;0.62;10.47;7.30;;;23.70;24.80;;;;;;2264058;61;20368;-64
2024/03/05 00:10:46;0.00;0.00;0.62;0.00;0.00;0.62;9.90;8.13;;;23.70;24.80;;;;;;2264385;61;20396;-65
2024/03/05 00:13:32;0.00;0.00;0.62;0.00;0.00;0.62;8.60;7.70;;;23.70;24.80;;;;;;2263337;61;20391;-67
2024/03/05 00:16:17;0.00;0.00;0.62;0.00;0.00;0.62;9.77;7.20;;;23.70;24.80;;;;;;2264329;61;20368;-67
2024/03/05 00:19:01;0.00;0.00;0.62;0.00;0.00;0.62;7.83;6.87;;;23.70;24.80;;;;;;2264228;61;20399;-65
2024/03/05 00:21:47;0.00;0.00;0.62;0.00;0.00;0.62;9.90;7.63;;;23.70;24.80;;;;;;2445405;45;20431;-65
2024/03/05 00:24:32;0.00;0.00;0.62;0.00;0.00;0.62;10.00;7.00;;;23.70;24.80;;;;;;2264257;61;21023;-64
2024/03/05 00:27:18;0.00;0.00;0.62;0.00;0.00;0.62;8.33;6.70;;;23.70;24.80;;;;;;2260447;61;20869;-66
2024/03/05 00:30:04;0.00;0.00;0.62;0.00;0.00;0.62;8.20;6.80;;;23.70;24.80;;;;;;2263824;61;20413;-64
2024/03/05 00:32:49;0.00;0.00;0.62;0.00;0.00;0.62;8.07;6.40;;;23.70;24.80;;;;;;2264226;61;20398;-64
2024/03/05 00:35:34;0.00;0.00;0.62;0.00;0.00;0.62;9.20;7.50;;;23.70;24.80;;;;;;2266015;61;20479;-64
2024/03/05 00:38:18;0.00;0.00;0.62;0.00;0.00;0.62;10.13;7.70;;;23.70;24.80;;;;;;2264820;61;20750;-65
2024/03/05 00:41:03;0.00;0.00;0.62;0.00;0.00;0.62;9.80;7.00;;;23.70;24.80;;;;;;2266545;61;20403;-64
2024/03/05 00:43:49;0.00;0.00;0.62;0.00;0.00;0.62;8.30;7.27;;;23.70;24.80;;;;;;2264648;61;20403;-64
2024/03/05 00:46:34;0.00;0.00;0.62;0.00;0.00;0.62;9.10;7.60;;;23.70;24.80;;;;;;2268213;61;20893;-65
2024/03/05 00:49:18;0.00;0.00;0.62;0.00;0.00;0.62;9.43;6.90;;;23.70;24.80;;;;;;2267618;61;20375;-65
2024/03/05 00:52:05;0.00;0.00;0.62;0.00;0.00;0.62;7.70;6.80;;;23.70;24.80;;;;;;2267532;61;20480;-65
2024/03/05 00:54:49;0.00;0.00;0.62;0.00;0.00;0.62;7.90;6.97;;;23.70;24.80;;;;;;2268305;61;20438;-64
2024/03/05 00:57:34;0.00;0.00;0.62;0.00;0.00;0.62;8.43;7.40;;;23.70;24.80;;;;;;2266620;61;20418;-65
2024/03/05 01:00:20;0.00;0.00;0.62;0.00;0.00;0.62;9.40;7.20;;;23.70;24.80;;;;;;2691792;45;20795;-65
2024/03/05 01:03:05;0.00;0.00;0.62;0.00;0.00;0.62;9.17;7.47;;;23.70;24.80;;;;;;2267203;61;20946;-64
2024/03/05 01:05:50;0.00;0.00;0.62;0.00;0.00;0.62;8.03;7.13;;;23.70;24.80;;;;;;2263302;61;20368;-65
2024/03/05 01:08:35;0.00;0.00;0.62;0.00;0.00;0.62;9.70;6.97;;;23.70;24.80;;;;;;2264034;61;20704;-65
2024/03/05 01:11:20;0.00;0.00;0.62;0.00;0.00;0.62;8.80;6.87;;;23.70;24.80;;;;;;2260829;61;20372;-65
2024/03/05 01:14:04;0.00;0.00;0.62;0.00;0.00;0.62;9.37;8.10;;;23.70;24.80;;;;;;2264027;61;20404;-64
2024/03/05 01:16:50;0.00;0.00;0.62;0.00;0.00;0.62;8.83;6.47;;;23.70;24.80;;;;;;2264050;61;20490;-65
2024/03/05 01:19:35;0.00;0.00;0.62;0.00;0.00;0.62;9.67;6.50;;;23.70;24.90;;;;;;2263464;61;20410;-70
2024/03/05 01:22:20;0.00;0.00;0.62;0.00;0.00;0.62;8.00;7.00;;;23.60;24.80;;;;;;2551612;45;20446;-64
2024/03/05 01:25:05;0.00;0.00;0.62;0.00;0.00;0.62;8.60;7.07;;;23.70;24.90;;;;;;2263829;61;20360;-66
2024/03/05 01:27:50;0.00;0.00;0.62;0.00;0.00;0.62;7.97;7.10;;;23.60;24.80;;;;;;2263414;61;20375;-64
2024/03/05 01:30:35;0.00;0.00;0.62;0.00;0.00;0.62;7.33;6.33;;;23.70;24.90;;;;;;2557711;45;20390;-65
2024/03/05 01:33:21;0.00;0.00;0.62;0.00;0.00;0.62;9.60;7.23;;;23.60;24.80;;;;;;2264027;61;20433;-64
2024/03/05 01:36:06;0.00;0.00;0.62;0.00;0.00;0.62;9.83;7.90;;;23.60;24.80;;;;;;2263555;61;20414;-66
2024/03/05 01:38:51;0.00;0.00;0.62;0.00;0.00;0.62;8.07;6.90;;;23.60;24.80;;;;;;2263107;61;20414;-65
2024/03/05 01:41:36;0.00;0.00;0.62;0.00;0.00;0.62;8.63;7.10;;;23.70;24.90;;;;;;2263816;61;20368;-64
2024/03/05 01:44:21;0.00;0.00;0.62;0.00;0.00;0.62;9.63;7.20;;;23.60;24.80;;;;;;2263593;61;20376;-69
2024/03/05 01:47:07;0.00;0.00;0.62;0.00;0.00;0.62;8.37;6.70;;;23.70;24.90;;;;;;2263562;61;20360;-64
2024/03/05 01:49:54;0.00;0.00;0.62;0.00;0.00;0.62;11.07;8.90;;;23.60;24.80;;;;;;2259904;61;20456;-64
2024/03/05 01:52:39;0.00;0.00;0.62;0.00;0.00;0.62;9.90;7.10;;;23.60;24.80;;;;;;2263940;61;20380;-65
2024/03/05 01:55:25;0.00;0.00;0.62;0.00;0.00;0.62;9.23;6.93;;;23.60;24.80;;;;;;2260623;61;20361;-65
2024/03/05 01:58:15;0.00;0.00;0.62;0.00;0.00;0.62;9.67;6.60;;;23.60;25.30;;;;;;2263316;61;21019;-65
2024/03/05 02:01:02;0.00;0.00;0.62;0.00;0.00;0.62;10.13;7.40;;;23.60;24.80;;;;;;2260687;61;20364;-65
2024/03/05 02:03:47;0.00;0.00;0.62;0.00;0.00;0.62;9.97;7.63;;;23.70;24.90;;;;;;2263582;61;20919;-65
2024/03/05 02:06:34;0.00;0.00;0.62;0.00;0.00;0.62;10.47;7.47;;;23.60;24.80;;;;;;2263721;61;20375;-65
2024/03/05 02:09:21;0.00;0.00;0.62;0.00;0.00;0.62;8.27;6.60;;;23.60;24.80;;;;;;2264073;61;20388;-64
2024/03/05 02:12:07;0.00;0.00;0.62;0.00;0.00;0.62;9.23;7.07;;;23.60;24.80;;;;;;2263919;61;20435;-64
2024/03/05 02:14:53;0.00;0.00;0.62;0.00;0.00;0.62;11.70;7.20;;;23.60;24.80;;;;;;2264076;61;20368;-65
2024/03/05 02:17:38;0.00;0.00;0.62;0.00;0.00;0.62;8.13;6.80;;;23.60;24.80;;;;;;2264242;61;20403;-65
2024/03/05 02:20:22;0.00;0.00;0.62;0.00;0.00;0.62;8.87;6.80;;;23.60;24.80;;;;;;2258935;61;20512;-65
2024/03/05 02:23:08;0.00;0.00;0.62;0.00;0.00;0.62;9.13;7.20;;;23.60;24.80;;;;;;2262408;61;20881;-65
2024/03/05 02:25:53;0.00;0.00;0.62;0.00;0.00;0.62;9.50;7.27;;;23.60;24.80;;;;;;2262663;61;20395;-64
2024/03/05 02:28:38;0.00;0.00;0.62;0.00;0.00;0.62;8.90;6.50;;;23.60;24.80;;;;;;2263829;61;20395;-64
2024/03/05 02:31:23;0.00;0.00;0.62;0.00;0.00;0.62;8.03;6.53;;;23.60;24.80;;;;;;2267499;61;20355;-65
2024/03/05 02:34:08;0.00;0.00;0.62;0.00;0.00;0.62;10.07;7.73;;;23.60;24.80;;;;;;2260719;61;20372;-66
2024/03/05 02:36:52;0.00;0.00;0.62;0.00;0.00;0.62;9.43;7.27;;;23.60;24.80;;;;;;2263404;61;20368;-64
2024/03/05 02:39:38;0.00;0.00;0.62;0.00;0.00;0.62;9.47;7.70;;;23.60;24.90;;;;;;2263833;61;21111;-65
2024/03/05 02:42:23;0.00;0.00;0.62;0.00;0.00;0.62;10.63;7.20;;;23.60;24.90;;;;;;2379221;53;20408;-65
2024/03/05 02:45:11;0.00;0.00;0.62;0.00;0.00;0.62;8.30;6.33;;;23.60;24.90;;;;;;2263499;61;20353;-64
2024/03/05 02:47:57;0.00;0.00;0.62;0.00;0.00;0.62;8.97;6.90;;;23.60;24.90;;;;;;2262253;61;20384;-66
2024/03/05 02:50:42;0.00;0.00;0.62;0.00;0.00;0.62;9.50;7.13;;;23.60;24.90;;;;;;2263981;61;20418;-65
2024/03/05 02:53:27;0.00;0.00;0.62;0.00;0.00;0.62;8.37;6.80;;;23.60;24.90;;;;;;2264086;61;20418;-64
2024/03/05 02:56:13;0.00;0.00;0.62;0.00;0.00;0.62;7.07;6.33;;;23.60;24.90;;;;;;2260627;61;20371;-65
2024/03/05 02:58:57;0.00;0.00;0.62;0.00;0.00;0.62;8.83;6.57;;;23.60;24.90;;;;;;2264450;61;20920;-64
2024/03/05 03:01:46;0.00;0.00;0.62;0.00;0.00;0.62;8.10;6.60;;;23.60;24.90;;;;;;2264698;61;20386;-64
2024/03/05 03:04:31;0.00;0.00;0.62;0.00;0.00;0.62;7.87;6.80;;;23.60;24.90;;;;;;2539410;45;20506;-65
2024/03/05 03:07:16;0.00;0.00;0.62;0.00;0.00;0.62;8.63;6.57;;;23.60;24.90;;;;;;2264096;61;20426;-65
2024/03/05 03:10:01;0.00;0.00;0.62;0.00;0.00;0.62;8.10;6.57;;;23.60;24.90;;;;;;2263856;61;20609;-65
2024/03/05 03:12:49;0.00;0.00;0.62;0.00;0.00;0.62;8.43;6.90;;;23.60;24.90;;;;;;2264094;61;20971;-65
2024/03/05 03:15:33;0.00;0.00;0.62;0.00;0.00;0.62;7.60;6.30;;;23.60;24.90;;;;;;2264427;61;20391;-64
2024/03/05 03:18:19;0.00;0.00;0.62;0.00;0.00;0.62;9.67;7.40;;;23.60;24.90;;;;;;2263857;61;20375;-64
2024/03/05 03:21:04;0.00;0.00;0.62;0.00;0.00;0.62;9.20;7.60;;;23.60;24.90;;;;;;2264350;61;20776;-64
2024/03/05 03:23:49;0.00;0.00;0.62;0.00;0.00;0.62;7.67;6.37;;;23.60;24.90;;;;;;2264290;61;20434;-66
2024/03/05 03:26:33;0.00;0.00;0.62;0.00;0.00;0.62;9.60;6.97;;;23.60;24.90;;;;;;2263694;61;20911;-67
2024/03/05 03:29:20;0.00;0.00;0.62;0.00;0.00;0.62;8.83;6.97;;;23.60;24.90;;;;;;2264388;61;20823;-65
2024/03/05 03:32:05;0.00;0.00;0.62;0.00;0.00;0.62;8.30;6.83;;;23.60;24.90;;;;;;2264123;61;20387;-66
2024/03/05 03:34:51;0.00;0.00;0.62;0.00;0.00;0.62;8.67;6.90;;;23.60;24.90;;;;;;2264581;61;20426;-64
2024/03/05 03:37:36;0.00;0.00;0.62;0.00;0.00;0.62;7.03;6.33;;;23.60;25.00;;;;;;2264818;61;20351;-64
2024/03/05 03:40:21;0.00;0.00;0.62;0.00;0.00;0.62;9.60;7.70;;;23.60;25.50;;;;;;2264269;61;20491;-65
2024/03/05 03:43:06;0.00;0.00;0.62;0.00;0.00;0.62;9.60;7.60;;;23.60;24.90;;;;;;2566128;45;20424;-65
2024/03/05 03:45:52;0.00;0.00;0.62;0.00;0.00;0.62;7.90;6.80;;;23.60;24.90;;;;;;2260467;61;20376;-63
2024/03/05 03:48:37;0.00;0.00;0.62;0.00;0.00;0.62;8.30;6.53;;;23.60;24.90;;;;;;2263342;61;20896;-65
2024/03/05 03:51:23;0.00;0.00;0.62;0.00;0.00;0.62;7.80;7.00;;;23.60;25.40;;;;;;2264550;61;20398;-65
2024/03/05 03:54:08;0.00;0.00;0.62;0.00;0.00;0.62;8.93;6.80;;;23.60;24.90;;;;;;2264322;61;20739;-65
2024/03/05 03:56:52;0.00;0.00;0.62;0.00;0.00;0.62;7.13;6.00;;;23.60;24.90;;;;;;2264038;61;20403;-68
2024/03/05 03:59:37;0.00;0.00;0.62;0.00;0.00;0.62;7.37;6.40;;;23.60;24.90;;;;;;2264332;61;20355;-63
2024/03/05 04:02:23;0.00;0.00;0.62;0.00;0.00;0.62;7.50;6.20;;;23.60;24.90;;;;;;2264070;61;20387;-67
2024/03/05 04:05:11;0.00;0.00;0.62;0.00;0.00;0.62;7.00;5.70;;;23.60;24.90;;;;;;2491988;53;20350;-64
2024/03/05 04:07:56;0.00;0.00;0.62;0.00;0.00;0.62;7.60;6.80;;;23.60;24.90;;;;;;2256209;61;20350;-63
2024/03/05 04:10:41;0.00;0.00;0.62;0.00;0.00;0.62;7.47;6.33;;;23.60;24.90;;;;;;2260408;61;20814;-65
2024/03/05 04:13:26;0.00;0.00;0.62;0.00;0.00;0.62;6.87;6.00;;;23.60;24.90;;;;;;2264076;61;20937;-64
2024/03/05 04:16:10;0.00;0.00;0.62;0.00;0.00;0.62;8.17;7.20;;;23.60;24.90;;;;;;2263920;61;20395;-61
2024/03/05 04:18:57;0.00;0.00;0.62;0.00;0.00;0.62;6.67;5.97;;;23.60;25.00;;;;;;2262591;61;20364;-65
2024/03/05 04:21:44;0.00;0.00;0.62;0.00;0.00;0.62;7.20;6.43;;;23.60;24.90;;;;;;2264001;61;20960;-65
2024/03/05 04:24:30;0.00;0.00;0.62;0.00;0.00;0.62;7.27;6.20;;;23.60;25.00;;;;;;2263815;61;20411;-64
2024/03/05 04:27:18;0.00;0.00;0.62;0.00;0.00;0.62;7.60;6.07;;;23.60;24.90;;;;;;2259956;61;20391;-66
2024/03/05 04:30:10;0.00;0.00;0.62;0.00;0.00;0.62;6.33;5.70;;;23.60;25.50;;;;;;2260324;61;20454;-63
2024/03/05 04:33:03;0.00;0.00;0.62;0.00;0.00;0.62;7.67;6.87;;;23.60;24.90;;;;;;2262030;61;20389;-66
2024/03/05 04:35:50;0.00;0.00;0.62;0.00;0.00;0.62;6.87;6.17;;;23.60;24.90;;;;;;2260202;61;20393;-64
2024/03/05 04:38:34;0.00;0.00;0.62;0.00;0.00;0.62;6.67;5.10;;;23.60;25.00;;;;;;2260038;61;20364;-63
2024/03/05 04:41:20;0.00;0.00;0.62;0.00;0.00;0.62;8.00;5.67;;;23.60;24.90;;;;;;2260034;61;20853;-64
2024/03/05 04:44:04;0.00;0.00;0.62;0.00;0.00;0.62;9.20;6.97;;;23.60;24.90;;;;;;2260013;61;20467;-62
2024/03/05 04:46:49;0.00;0.00;0.62;0.00;0.00;0.62;8.33;6.07;;;23.60;24.90;;;;;;2256616;61;20436;-63
2024/03/05 04:49:34;0.00;0.00;0.62;0.00;0.00;0.62;6.37;5.27;;;23.60;25.00;;;;;;2297159;58;20875;-64
2024/03/05 04:52:20;0.00;0.00;0.62;0.00;0.00;0.62;7.70;5.23;;;23.60;24.90;;;;;;2264099;61;20458;-64
2024/03/05 04:55:05;0.00;0.00;0.62;0.00;0.00;0.62;6.80;5.70;;;23.60;25.00;;;;;;2263912;61;20777;-64
2024/03/05 04:57:50;0.00;0.00;0.62;0.00;0.00;0.62;6.70;5.17;;;23.60;24.90;;;;;;2264135;61;20368;-64
2024/03/05 05:00:36;0.00;0.00;0.62;0.00;0.00;0.62;6.20;5.60;;;23.60;24.90;;;;;;2260614;61;20408;-64
2024/03/05 05:03:20;0.00;0.00;0.62;0.00;0.00;0.62;5.90;5.10;;;23.60;24.90;;;;;;2263979;61;20852;-63
2024/03/05 05:06:05;0.00;0.00;0.62;0.00;0.00;0.62;6.40;5.57;;;23.60;25.00;;;;;;2264122;61;21029;-64
2024/03/05 05:08:51;0.00;0.00;0.62;0.00;0.00;0.62;6.90;5.80;;;23.60;24.90;;;;;;2263805;61;20360;-64
2024/03/05 05:11:36;0.00;0.00;0.62;0.00;0.00;0.62;6.70;5.87;;;23.60;25.00;;;;;;2263416;61;20962;-64
2024/03/05 05:14:21;0.00;0.00;0.62;0.00;0.00;0.62;6.40;5.43;;;23.60;24.90;;;;;;2264211;61;20802;-65
2024/03/05 05:17:06;0.00;0.00;0.62;0.00;0.00;0.62;5.70;4.83;;;23.60;25.00;;;;;;2263521;61;20376;-63
2024/03/05 05:19:51;0.00;0.00;0.62;0.00;0.00;0.62;6.33;5.73;;;23.60;25.00;;;;;;2264258;61;20779;-64
2024/03/05 05:22:37;0.00;0.00;0.62;0.00;0.00;0.62;6.90;5.50;;;23.60;25.00;;;;;;2264056;61;20487;-67
2024/03/05 05:25:23;0.00;0.00;0.62;0.00;0.00;0.62;6.50;5.90;;;23.60;25.00;;;;;;2261890;61;20410;-64
2024/03/05 05:28:08;0.00;0.00;0.62;0.00;0.00;0.62;7.00;5.97;;;23.60;25.00;;;;;;2264061;61;20902;-66
2024/03/05 05:30:53;0.00;0.00;0.62;0.00;0.00;0.62;8.80;6.20;;;23.60;24.90;;;;;;2263844;61;20396;-64
2024/03/05 05:33:38;0.00;0.00;0.62;0.00;0.00;0.62;6.53;5.40;;;23.60;25.00;;;;;;2263599;61;20392;-66
2024/03/05 05:36:22;0.00;0.00;0.62;0.00;0.00;0.62;6.70;5.60;;;23.60;24.90;;;;;;2264175;61;20401;-65
2024/03/05 05:39:07;0.00;0.00;0.62;0.00;0.00;0.62;6.93;5.03;;;23.60;24.90;;;;;;2260261;61;20912;-65
2024/03/05 05:41:53;0.00;0.00;0.62;0.00;0.00;0.62;6.67;4.87;;;23.60;25.00;;;;;;2264320;61;20468;-66
2024/03/05 05:44:38;0.00;0.00;0.62;0.00;0.00;0.62;6.67;5.57;;;23.60;25.00;;;;;;2264194;61;20425;-64
2024/03/05 05:47:24;0.00;0.00;0.62;0.00;0.00;0.62;5.43;4.83;;;23.60;25.00;;;;;;2529311;45;20387;-65
2024/03/05 05:50:18;0.00;0.00;0.62;0.00;0.00;0.62;5.43;4.90;;;23.60;25.00;;;;;;2264032;61;20931;-65
2024/03/05 05:53:08;0.00;0.00;0.62;0.00;0.00;0.62;6.10;5.50;;;23.60;25.00;;;;;;2260619;61;20450;-65
2024/03/05 05:55:53;0.00;0.00;0.62;0.00;0.00;0.62;6.97;5.00;;;23.60;25.00;;;;;;2259984;61;20484;-66
2024/03/05 05:58:39;0.00;0.00;0.62;0.00;0.00;0.62;6.73;5.60;;;23.60;25.00;;;;;;2260091;61;20393;-65
2024/03/05 06:01:24;0.00;0.00;0.62;0.00;0.00;0.62;6.10;5.50;;;23.60;25.00;;;;;;2262455;61;20901;-65
2024/03/05 06:04:11;0.00;0.00;0.62;0.00;0.00;0.62;7.17;5.50;;;23.60;25.00;;;;;;2263838;61;20789;-65
2024/03/05 06:06:56;0.00;0.00;0.62;0.00;0.00;0.62;5.73;5.03;;;23.60;25.00;;;;;;2264159;61;20379;-65
2024/03/05 06:09:41;0.00;0.00;0.62;0.00;0.00;0.62;5.90;4.60;;;23.60;24.90;;;;;;2520145;45;20458;-65
2024/03/05 06:12:25;0.00;0.00;0.62;0.00;0.00;0.62;4.97;4.47;;;23.60;25.00;;;;;;2260313;61;20529;-66
2024/03/05 06:15:12;0.00;0.00;0.62;0.00;0.00;0.62;5.67;5.07;;;23.60;25.00;;;;;;2256998;61;20416;-63
2024/03/05 06:17:59;0.00;0.00;0.62;0.00;0.00;0.62;6.03;5.47;;;23.50;24.90;;;;;;2263582;61;20364;-66
2024/03/05 06:20:43;0.00;0.00;0.62;0.00;0.00;0.62;5.10;4.53;;;23.60;25.00;;;;;;2264525;61;20391;-65
2024/03/05 06:23:29;0.00;0.00;0.62;0.00;0.00;0.62;5.20;4.47;;;23.60;24.90;;;;;;2263361;61;20929;-66
2024/03/05 06:26:14;0.00;0.00;0.62;0.00;0.00;0.62;4.93;4.43;;;23.60;24.90;;;;;;2264602;61;20383;-66
2024/03/05 06:28:59;0.00;0.00;0.62;0.00;0.00;0.62;4.33;3.93;;;23.50;24.90;;;;;;2264727;61;20360;-66
2024/03/05 06:31:45;0.00;0.00;0.62;0.00;0.00;0.62;5.43;4.50;;;23.60;24.90;;;;;;2529975;45;20462;-66
2024/03/05 06:34:30;0.00;0.00;0.62;0.00;0.00;0.62;5.60;4.73;;;23.50;24.90;;;;;;2261274;61;20388;-67
2024/03/05 06:37:15;0.00;0.00;0.62;0.00;0.00;0.62;5.37;4.33;;;23.50;24.90;;;;;;2260643;61;20385;-66
2024/03/05 06:40:06;0.00;0.00;0.62;0.00;0.00;0.62;4.80;4.10;;;23.60;25.00;;;;;;2261175;61;20928;-66
2024/03/05 06:42:52;0.00;0.00;0.62;0.00;0.00;0.62;5.93;5.27;;;23.50;24.90;;;;;;2257551;61;20949;-65
2024/03/05 06:45:37;0.00;0.00;0.62;0.00;0.00;0.62;6.73;5.30;;;23.60;24.90;;;;;;2263304;61;20415;-64
2024/03/05 06:48:23;0.00;0.00;0.62;0.00;0.00;0.62;7.47;6.30;;;23.50;24.90;;;;;;2260603;61;20387;-67
2024/03/05 06:51:26;0.00;0.00;0.62;0.00;0.00;0.62;7.47;6.37;;;23.50;24.90;;;;;;2268729;61;20417;-66
2024/03/05 06:57:14;0.00;0.00;0.62;0.00;0.00;0.62;6.90;6.20;;;23.50;24.90;;;;;;2262662;61;20370;-67
2024/03/05 06:59:59;0.00;0.00;0.62;0.00;0.00;0.62;7.03;6.33;;;23.50;24.80;;;;;;2264597;61;20818;-66
2024/03/05 07:02:43;0.00;0.00;0.62;0.00;0.00;0.62;7.43;6.73;;;23.50;24.90;;;;;;2787530;45;20877;-66
2024/03/05 07:05:29;0.00;0.00;0.62;0.00;0.00;0.62;7.07;6.23;;;23.50;24.90;;;;;;2264069;61;20367;-66
2024/03/05 07:08:14;0.00;0.00;0.62;0.00;0.00;0.62;7.73;6.87;;;23.50;24.90;;;;;;2263552;61;20368;-66
2024/03/05 07:11:00;0.00;0.00;0.62;0.00;0.00;0.62;10.40;7.50;;;23.50;24.90;;;;;;2260577;61;20845;-66
2024/03/05 07:13:47;0.00;0.00;0.62;0.00;0.00;0.62;8.13;7.10;;;23.50;24.90;;;;;;2263640;61;20383;-66
2024/03/05 07:16:32;0.00;0.00;0.62;0.00;0.00;0.62;8.77;7.87;;;23.50;24.90;;;;;;2260345;61;20758;-67
2024/03/05 07:19:16;0.00;0.00;0.62;0.00;0.00;0.62;7.90;7.10;;;23.50;24.90;;;;;;2263689;61;20379;-64
2024/03/05 07:22:03;0.00;0.00;0.62;0.00;0.00;0.62;10.10;8.20;;;23.50;24.80;;;;;;2260432;61;20812;-66
2024/03/05 07:24:48;0.00;0.00;0.62;0.00;0.00;0.62;8.67;7.80;;;23.50;24.80;;;;;;2263406;61;20359;-66
2024/03/05 07:27:33;0.00;0.00;0.62;0.00;0.00;0.62;9.70;8.70;;;23.50;24.80;;;;;;2263749;61;20392;-66
2024/03/05 07:30:20;0.00;0.00;0.62;0.00;0.00;0.62;8.97;7.70;;;23.50;24.80;;;;;;2263107;61;20899;-64
2024/03/05 07:33:04;0.00;0.00;0.62;0.00;0.00;0.62;9.77;8.77;;;23.50;24.80;;;;;;2263603;61;20395;-64
2024/03/05 07:35:49;0.00;0.00;0.62;0.00;0.00;0.62;9.27;8.37;;;23.50;24.80;;;;;;2263983;61;20399;-65
2024/03/05 07:38:35;0.00;0.00;0.62;0.00;0.00;0.62;8.20;7.40;;;23.50;24.80;;;;;;2369395;53;20400;-66
2024/03/05 07:41:20;0.00;0.00;0.62;0.00;0.00;0.62;8.90;8.00;;;23.50;24.80;;;;;;2264493;61;20418;-63
2024/03/05 07:44:05;0.00;0.00;0.62;0.00;0.00;0.62;8.40;7.33;;;23.50;24.80;;;;;;2264102;61;20427;-63
2024/03/05 07:46:50;0.00;0.00;0.62;0.00;0.00;0.62;8.00;7.07;;;23.50;24.80;;;;;;2264282;61;20896;-65
2024/03/05 07:49:34;0.00;0.00;0.62;0.00;0.00;0.62;8.70;7.43;;;23.50;24.80;;;;;;2264305;61;20467;-65
2024/03/05 07:52:19;0.00;0.00;0.62;0.00;0.00;0.62;11.63;8.60;;;23.50;24.80;;;;;;2263755;61;20392;-66
2024/03/05 07:55:09;0.00;0.00;0.62;0.00;0.00;0.62;9.03;7.73;;;23.50;24.80;;;;;;2261294;61;20368;-65
2024/03/05 07:57:54;0.00;0.00;0.62;0.00;0.00;0.62;9.13;7.37;;;23.50;24.80;;;;;;2264437;61;20399;-65
2024/03/05 08:00:38;0.00;0.00;0.62;0.00;0.00;0.62;8.80;7.90;;;23.50;24.80;;;;;;2515993;45;20395;-64
2024/03/05 08:03:23;0.00;0.00;0.62;0.00;0.00;0.62;8.40;7.60;;;23.50;24.80;;;;;;2261043;61;20944;-64
2024/03/05 08:06:08;0.00;0.00;0.62;0.00;0.00;0.62;7.90;7.10;;;23.50;24.80;;;;;;2264013;61;20778;-66
2024/03/05 08:08:52;0.00;0.00;0.62;0.00;0.00;0.62;8.57;7.77;;;23.50;24.80;;;;;;2264099;61;20371;-63
2024/03/05 08:11:39;0.00;0.00;0.62;0.00;0.00;0.62;9.30;8.30;;;23.50;24.80;;;;;;2264168;61;20384;-66
2024/03/05 08:14:23;0.00;0.00;0.62;0.00;0.00;0.62;8.87;7.97;;;23.50;24.80;;;;;;2263886;61;20364;-65
2024/03/05 08:17:08;0.00;0.00;0.62;0.00;0.00;0.62;9.60;7.67;;;23.50;24.80;;;;;;2264374;61;20406;-66
2024/03/05 08:19:53;0.00;0.00;0.62;0.00;0.00;0.62;8.50;7.60;;;23.50;24.70;;;;;;2264276;61;20348;-65
2024/03/05 08:22:38;0.00;0.00;0.62;0.00;0.00;0.62;7.50;6.70;;;23.50;24.70;;;;;;2266268;58;20435;-64
2024/03/05 08:25:24;0.00;0.00;0.62;0.00;0.00;0.62;7.73;7.00;;;23.50;24.80;;;;;;2264315;61;20360;-65
2024/03/05 08:28:09;0.00;0.00;0.62;0.00;0.00;0.62;9.60;7.80;;;23.50;24.80;;;;;;2264439;61;20371;-68
2024/03/05 08:30:54;0.00;0.00;0.62;0.00;0.00;0.62;8.03;6.70;;;23.50;24.80;;;;;;2264956;61;20736;-65
2024/03/05 08:33:38;0.00;0.00;0.62;0.00;0.00;0.62;9.00;8.10;;;23.50;25.30;;;;;;2260941;61;20380;-66
2024/03/05 08:36:25;0.00;0.00;0.62;0.00;0.00;0.62;7.97;7.10;;;23.50;24.70;;;;;;2260745;61;20364;-65
2024/03/05 08:39:17;0.00;0.00;0.62;0.00;0.00;0.62;7.93;7.07;;;23.50;24.70;;;;;;2781260;45;20347;-65
2024/03/05 08:42:02;0.00;0.00;0.62;0.00;0.00;0.62;8.93;8.00;;;23.50;24.70;;;;;;2260255;61;20489;-64
2024/03/05 08:44:48;0.00;0.00;0.62;0.00;0.00;0.62;7.57;6.80;;;23.50;24.70;;;;;;2263632;61;20514;-65
2024/03/05 08:47:33;0.00;0.00;0.62;0.00;0.00;0.62;8.30;7.50;;;23.50;24.70;;;;;;2263933;61;20758;-65
2024/03/05 08:50:18;0.00;0.00;0.62;0.00;0.00;0.62;8.07;7.37;;;23.50;24.70;;;;;;2263862;61;20789;-64
2024/03/05 08:53:04;0.00;0.00;0.62;0.00;0.00;0.62;8.80;7.17;;;23.50;24.70;;;;;;2264108;61;20400;-65
2024/03/05 08:55:52;0.00;0.00;0.62;0.00;0.00;0.62;8.53;7.07;;;23.40;25.20;;;;;;2264945;61;20465;-65
2024/03/05 08:58:36;0.00;0.00;0.62;0.00;0.00;0.62;7.97;6.80;;;23.50;24.70;;;;;;2262110;61;20408;-64
2024/03/05 09:01:23;0.00;0.00;0.62;0.00;0.00;0.62;6.43;5.83;;;23.40;24.60;;;;;;2621483;45;20361;-66
2024/03/05 09:04:09;0.00;0.00;0.62;0.00;0.00;0.62;8.07;7.37;;;23.50;24.70;;;;;;2262684;61;20937;-65
2024/03/05 09:06:54;0.00;0.00;0.62;0.00;0.00;0.62;8.77;7.97;;;23.50;24.70;;;;;;2264688;61;20915;-65
2024/03/05 09:09:39;0.00;0.00;0.62;0.00;0.00;0.62;7.90;6.63;;;23.50;24.70;;;;;;2266340;61;20908;-65
2024/03/05 09:12:24;0.00;0.00;0.62;0.00;0.00;0.62;9.30;6.80;;;23.50;24.70;;;;;;2265933;61;20818;-66
2024/03/05 09:15:09;0.00;0.00;0.62;0.00;0.00;0.62;7.13;6.43;;;23.40;24.60;;;;;;2262553;61;20357;-66
2024/03/05 09:17:55;0.00;0.00;0.62;0.00;0.00;0.62;8.17;6.77;;;23.40;24.60;;;;;;2257285;61;20796;-66
2024/03/05 09:20:41;0.00;0.00;0.62;0.00;0.00;0.62;8.20;6.50;;;23.40;24.60;;;;;;2259897;61;20369;-65
2024/03/05 09:23:26;0.00;0.00;0.62;0.00;0.00;0.62;9.60;6.63;;;23.40;25.20;;;;;;2724063;45;20861;-63
2024/03/05 09:26:12;0.00;0.00;0.62;0.00;0.00;0.62;7.07;6.30;;;23.40;24.60;;;;;;2255912;61;20361;-65
2024/03/05 09:28:57;0.00;0.00;0.62;0.00;0.00;0.62;7.50;6.00;;;23.40;24.60;;;;;;2262627;61;20408;-65
2024/03/05 09:31:42;0.00;0.00;0.62;0.00;0.00;0.62;6.67;6.07;;;23.40;24.60;;;;;;2263729;61;20375;-65
2024/03/05 09:34:29;0.00;0.00;0.62;0.00;0.00;0.62;8.07;7.27;;;23.40;24.60;;;;;;2263412;61;20474;-63
2024/03/05 09:37:14;0.00;0.00;0.62;0.00;0.00;0.62;7.27;6.57;;;23.40;24.60;;;;;;2259176;61;20380;-65
2024/03/05 09:39:59;0.00;0.00;0.62;0.00;0.00;0.62;6.87;6.10;;;23.40;24.60;;;;;;2263818;61;20347;-64
2024/03/05 09:42:43;0.00;0.00;0.62;0.00;0.00;0.62;7.70;6.60;;;23.40;24.60;;;;;;2263595;61;20676;-65
2024/03/05 09:45:30;0.00;0.00;0.62;0.00;0.00;0.62;6.70;6.03;;;23.40;24.60;;;;;;2263544;61;20840;-65
2024/03/05 09:48:17;0.00;0.00;0.62;0.00;0.00;0.62;7.43;6.67;;;23.40;24.70;;;;;;2263361;61;20402;-65
2024/03/05 09:51:09;0.00;0.00;0.62;0.00;0.00;0.62;7.07;6.37;;;23.40;24.60;;;;;;2259224;61;20368;-66
2024/03/05 09:53:54;0.00;0.00;0.62;0.00;0.00;0.62;8.10;6.87;;;23.40;24.60;;;;;;2259660;61;20349;-67
2024/03/05 09:56:47;0.00;0.00;0.62;0.00;0.00;0.62;7.43;6.73;;;23.40;24.60;;;;;;2260787;61;20372;-65
2024/03/05 09:59:31;0.00;0.00;0.62;0.00;0.00;0.62;7.77;7.00;;;23.40;24.70;;;;;;2259930;61;20789;-65
2024/03/05 10:02:17;0.00;0.00;0.62;0.00;0.00;0.62;8.43;7.57;;;23.40;24.60;;;;;;2243964;61;1184956;-65
2024/03/05 10:05:02;0.00;0.00;0.62;0.00;0.00;0.62;7.70;6.37;;;23.40;24.60;;;;;;2261596;61;20245;-65
2024/03/05 10:07:48;0.00;0.00;0.62;0.00;0.00;0.62;8.60;7.17;;;23.40;24.70;;;;;;2496483;53;20434;-62
2024/03/05 10:10:33;0.00;0.00;0.62;0.00;0.00;0.62;8.07;7.23;;;23.40;24.70;;;;;;2259965;61;20406;-65
2024/03/05 10:13:18;0.00;0.00;0.62;0.00;0.00;0.62;9.60;8.13;;;23.40;24.70;;;;;;2263019;61;20495;-66
2024/03/05 10:16:19;0.00;0.00;0.62;0.00;0.00;0.62;8.23;7.37;;;23.40;24.70;;;;;;2263981;61;20360;-66
2024/03/05 10:19:12;0.00;0.00;0.62;0.00;0.00;0.62;7.40;6.70;;;23.40;24.70;;;;;;2263667;61;20847;-65
2024/03/05 10:22:10;0.00;0.00;0.62;0.00;0.00;0.62;9.77;8.30;;;23.40;24.70;;;;;;2260310;61;20377;-65
2024/03/05 10:25:06;0.00;0.00;0.62;0.00;0.00;0.62;8.60;7.70;;;23.40;24.70;;;;;;2259786;61;20384;-65
2024/03/05 10:27:51;0.00;0.00;0.62;0.00;0.00;0.62;10.73;8.27;;;23.40;24.70;;;;;;2259068;61;20957;-66
2024/03/05 10:30:37;0.00;0.00;0.62;0.00;0.00;0.62;9.00;8.10;;;23.40;24.70;;;;;;2496636;53;20341;-64
2024/03/05 10:33:23;0.00;0.00;0.62;0.00;0.00;0.62;9.10;8.20;;;23.40;24.70;;;;;;2259820;61;21005;-66
2024/03/05 10:36:08;0.00;0.00;0.62;0.00;0.00;0.62;9.37;8.40;;;23.40;24.70;;;;;;2366837;53;20922;-65
2024/03/05 10:38:53;0.00;0.00;0.62;0.00;0.00;0.62;8.87;7.97;;;23.40;24.70;;;;;;2259682;61;20780;-65
2024/03/05 10:41:40;0.00;0.00;0.62;0.00;0.00;0.62;9.40;8.07;;;23.40;24.70;;;;;;2256441;61;20408;-63
2024/03/05 10:44:26;0.00;0.00;0.62;0.00;0.00;0.62;9.87;8.33;;;23.40;24.70;;;;;;2256003;61;20385;-66
2024/03/05 10:47:11;0.00;0.00;0.62;0.00;0.00;0.62;9.70;8.70;;;23.40;24.70;;;;;;2259214;61;20416;-65
2024/03/05 10:49:58;0.00;0.00;0.62;0.00;0.00;0.62;10.43;9.33;;;23.40;24.70;;;;;;2261938;61;20360;-65
2024/03/05 10:52:43;0.00;0.00;0.62;0.00;0.00;0.62;10.20;8.73;;;23.40;24.70;;;;;;2259817;61;20380;-65
2024/03/05 10:55:28;0.00;0.00;0.62;0.00;0.00;0.62;10.60;9.50;;;23.40;24.70;;;;;;2259694;61;20376;-65
2024/03/05 11:01:24;0.00;0.00;0.62;0.00;0.00;0.62;10.57;9.50;;;23.40;24.70;;;;;;2246325;61;20395;-66